createdAt,value
2022-08-03T00:01:36.461Z,13.57
2022-08-03T00:04:04.580Z,13.77
2022-08-03T00:06:36.805Z,13.85
2022-08-03T00:09:05.308Z,13.52
2022-08-03T00:11:32.724Z,14.27
2022-08-03T00:14:00.248Z,13.05
2022-08-03T00:16:27.307Z,13.20
2022-08-03T00:18:54.323Z,14.07
2022-08-03T00:21:21.299Z,13.25
2022-08-03T00:23:52.193Z,13.65
2022-08-03T00:26:21.181Z,13.73
2022-08-03T00:28:48.965Z,14.13
2022-08-03T00:31:16.170Z,14.18
2022-08-03T00:33:59.264Z,13.15
2022-08-03T00:36:30.390Z,13.82
2022-08-03T00:38:57.426Z,13.68
2022-08-03T00:41:24.769Z,13.43
2022-08-03T00:43:51.629Z,14.43
2022-08-03T00:46:21.688Z,13.73
2022-08-03T00:48:53.538Z,13.15
2022-08-03T00:51:22.273Z,13.48
2022-08-03T00:53:50.056Z,13.55
2022-08-03T00:56:17.755Z,12.65
2022-08-03T00:58:45.930Z,12.60
2022-08-03T01:01:13.808Z,13.02
2022-08-03T01:03:41.002Z,12.13
2022-08-03T01:06:18.772Z,13.50
2022-08-03T01:09:02.653Z,12.13
2022-08-03T01:11:35.828Z,12.45
2022-08-03T01:14:37.488Z,12.65
2022-08-03T01:17:19.426Z,12.35
2022-08-03T01:20:07.917Z,13.57
2022-08-03T01:22:51.113Z,12.35
2022-08-03T01:25:23.949Z,12.82
2022-08-03T01:28:08.955Z,13.20
2022-08-03T01:30:43.740Z,12.70
2022-08-03T01:33:18.908Z,13.57
2022-08-03T01:35:54.338Z,12.50
2022-08-03T01:38:34.597Z,13.20
2022-08-03T01:41:08.734Z,13.05
2022-08-03T01:44:26.609Z,12.85
2022-08-03T01:46:27.855Z,12.73
2022-08-03T01:48:56.277Z,12.63
2022-08-03T01:51:23.775Z,13.70
2022-08-03T01:54:13.583Z,13.88
2022-08-03T01:56:42.791Z,14.02
2022-08-03T01:59:11.481Z,14.45
2022-08-03T02:02:27.972Z,12.93
2022-08-03T02:04:28.972Z,14.30
2022-08-03T02:07:01.851Z,14.45
2022-08-03T02:09:31.195Z,13.65
2022-08-03T02:12:00.793Z,15.00
2022-08-03T02:14:28.429Z,13.40
2022-08-03T02:16:56.697Z,13.20
2022-08-03T02:19:26.609Z,14.07
2022-08-03T02:21:56.374Z,14.38
2022-08-03T02:24:29.379Z,13.52
2022-08-03T02:26:57.635Z,13.60
2022-08-03T02:29:39.247Z,14.60
2022-08-03T02:32:12.529Z,13.00
2022-08-03T02:34:42.287Z,13.63
2022-08-03T02:37:13.177Z,13.80
2022-08-03T02:39:43.016Z,13.60
2022-08-03T02:42:12.248Z,12.75
2022-08-03T02:44:43.786Z,12.60
2022-08-03T02:47:13.235Z,12.93
2022-08-03T02:49:51.407Z,12.98
2022-08-03T02:52:24.237Z,12.95
2022-08-03T02:54:55.023Z,13.32
2022-08-03T02:57:23.027Z,13.85
2022-08-03T02:59:50.584Z,12.95
2022-08-03T03:02:19.349Z,13.35
2022-08-03T03:05:51.585Z,12.63
2022-08-03T03:07:49.105Z,13.25
2022-08-03T03:10:24.565Z,12.70
2022-08-03T03:12:55.686Z,13.25
2022-08-03T03:15:26.669Z,12.80
2022-08-03T03:17:54.601Z,13.00
2022-08-03T03:20:26.228Z,13.60
2022-08-03T03:23:00.131Z,13.70
2022-08-03T03:25:30.684Z,12.45
2022-08-03T03:27:58.790Z,12.60
2022-08-03T03:30:26.439Z,14.55
2022-08-03T03:32:54.303Z,13.90
2022-08-03T03:35:21.476Z,12.35
2022-08-03T03:37:48.399Z,14.02
2022-08-03T03:40:15.584Z,12.05
2022-08-03T03:42:42.925Z,12.75
2022-08-03T03:45:11.080Z,12.18
2022-08-03T03:47:38.255Z,13.00
2022-08-03T03:50:06.660Z,12.38
2022-08-03T03:52:34.713Z,12.68
2022-08-03T03:55:02.050Z,11.77
2022-08-03T03:57:29.605Z,13.25
2022-08-03T03:59:57.094Z,12.15
2022-08-03T04:02:24.998Z,11.30
2022-08-03T04:05:10.454Z,10.90
2022-08-03T04:08:16.224Z,11.45
2022-08-03T04:11:00.593Z,12.05
2022-08-03T04:13:56.891Z,13.20
2022-08-03T04:16:33.902Z,12.52
2022-08-03T04:19:08.403Z,12.63
2022-08-03T04:21:39.903Z,13.10
2022-08-03T04:24:11.119Z,12.40
2022-08-03T04:26:41.800Z,12.70
2022-08-03T04:29:10.758Z,13.32
2022-08-03T04:31:39.837Z,12.98
2022-08-03T04:34:07.928Z,14.52
2022-08-03T04:36:52.813Z,13.05
2022-08-03T04:39:28.263Z,13.52
2022-08-03T04:42:16.834Z,13.75
2022-08-03T04:44:46.149Z,13.57
2022-08-03T04:47:13.227Z,13.68
2022-08-03T04:49:40.615Z,13.50
2022-08-03T04:52:08.697Z,13.90
2022-08-03T04:54:50.271Z,13.38
2022-08-03T04:57:22.836Z,14.07
2022-08-03T05:00:01.469Z,13.93
2022-08-03T05:02:31.431Z,13.77
2022-08-03T05:04:58.499Z,13.05
2022-08-03T05:07:25.659Z,13.35
2022-08-03T05:09:57.547Z,14.00
2022-08-03T05:12:32.522Z,14.23
2022-08-03T05:15:00.804Z,14.18
2022-08-03T05:17:28.614Z,14.50
2022-08-03T05:19:55.970Z,14.98
2022-08-03T05:22:24.220Z,14.27
2022-08-03T05:24:51.201Z,14.85
2022-08-03T05:27:21.325Z,15.50
2022-08-03T05:29:51.995Z,14.77
2022-08-03T05:32:19.668Z,14.65
2022-08-03T05:34:46.971Z,15.15
2022-08-03T05:37:14.390Z,15.73
2022-08-03T05:39:41.571Z,14.95
2022-08-03T05:42:08.618Z,16.80
2022-08-03T05:44:38.702Z,17.15
2022-08-03T05:47:06.142Z,16.25
2022-08-03T05:49:33.371Z,16.38
2022-08-03T05:52:15.037Z,15.98
2022-08-03T05:54:56.170Z,15.85
2022-08-03T05:57:24.787Z,15.77
2022-08-03T05:59:54.793Z,16.25
2022-08-03T06:02:26.461Z,16.65
2022-08-03T06:04:53.740Z,16.75
2022-08-03T06:07:20.705Z,17.27
2022-08-03T06:10:34.508Z,16.63
2022-08-03T06:12:37.074Z,16.67
2022-08-03T06:15:04.834Z,17.25
2022-08-03T06:17:37.262Z,15.32
2022-08-03T06:20:06.237Z,13.48
2022-08-03T06:22:33.356Z,13.35
2022-08-03T06:25:04.854Z,12.52
2022-08-03T06:27:36.621Z,12.80
2022-08-03T06:30:05.309Z,12.35
2022-08-03T06:32:32.219Z,12.80
2022-08-03T06:34:59.277Z,12.23
2022-08-03T06:37:27.167Z,12.13
2022-08-03T06:39:54.648Z,11.73
2022-08-03T06:42:22.569Z,10.90
2022-08-03T06:44:49.640Z,10.43
2022-08-03T06:47:16.434Z,10.77
2022-08-03T06:49:43.351Z,11.15
2022-08-03T06:52:10.361Z,11.63
2022-08-03T06:54:37.252Z,10.90
2022-08-03T06:57:04.542Z,10.57
2022-08-03T07:00:07.917Z,12.52
2022-08-03T07:02:21.404Z,10.88
2022-08-03T07:04:49.535Z,10.00
2022-08-03T07:07:17.472Z,10.55
2022-08-03T07:09:56.719Z,10.77
2022-08-03T07:12:24.420Z,9.68
2022-08-03T07:14:51.208Z,10.43
2022-08-03T07:17:18.505Z,9.93
2022-08-03T07:19:45.459Z,10.07
2022-08-03T07:22:12.399Z,10.38
2022-08-03T07:24:39.344Z,9.50
2022-08-03T07:27:06.196Z,9.40
2022-08-03T07:29:34.878Z,8.57
2022-08-03T07:32:02.352Z,7.47
2022-08-03T07:34:29.254Z,6.45
2022-08-03T07:36:56.078Z,7.60
2022-08-03T07:39:23.027Z,6.80
2022-08-03T07:41:53.031Z,5.55
2022-08-03T07:44:20.075Z,5.78
2022-08-03T07:46:47.626Z,6.45
2022-08-03T07:49:14.739Z,4.93
2022-08-03T07:51:41.571Z,4.93
2022-08-03T07:54:10.208Z,4.13
2022-08-03T07:56:37.681Z,4.50
2022-08-03T07:59:04.503Z,4.25
2022-08-03T08:01:35.837Z,4.20
2022-08-03T08:04:02.786Z,3.72
2022-08-03T08:06:31.740Z,3.63
2022-08-03T08:09:01.769Z,3.92
2022-08-03T08:11:29.775Z,3.00
2022-08-03T08:13:56.902Z,3.20
2022-08-03T08:16:23.950Z,3.33
2022-08-03T08:18:50.837Z,3.03
2022-08-03T08:21:17.672Z,3.92
2022-08-03T08:23:50.548Z,3.13
2022-08-03T08:26:24.872Z,3.03
2022-08-03T08:28:52.784Z,3.13
2022-08-03T08:31:19.894Z,3.20
2022-08-03T08:34:04.009Z,3.47
2022-08-03T08:36:34.934Z,4.05
2022-08-03T08:39:02.023Z,3.63
2022-08-03T08:41:32.038Z,4.25
2022-08-03T08:44:00.257Z,3.53
2022-08-03T08:46:27.841Z,3.50
2022-08-03T08:48:55.577Z,3.08
2022-08-03T08:51:52.690Z,3.15
2022-08-03T08:54:15.698Z,2.53
2022-08-03T08:56:44.239Z,2.65
2022-08-03T08:59:11.446Z,2.35
2022-08-03T09:01:38.422Z,2.55
2022-08-03T09:04:09.589Z,2.90
2022-08-03T09:06:36.641Z,2.95
2022-08-03T09:09:03.901Z,3.22
2022-08-03T09:11:53.452Z,3.30
2022-08-03T09:14:39.468Z,1.95
2022-08-03T09:17:05.180Z,2.80
2022-08-03T09:19:33.765Z,2.30
2022-08-03T09:22:11.400Z,2.35
2022-08-03T09:24:41.748Z,2.53
2022-08-03T09:27:13.498Z,3.05
2022-08-03T09:29:40.365Z,2.60
2022-08-03T09:32:07.281Z,2.80
2022-08-03T09:34:34.171Z,2.65
2022-08-03T09:37:01.040Z,2.75
2022-08-03T09:39:42.204Z,2.60
2022-08-03T09:42:14.913Z,2.40
2022-08-03T09:44:50.779Z,2.55
2022-08-03T09:47:29.362Z,3.13
2022-08-03T09:50:02.209Z,2.55
2022-08-03T09:52:50.256Z,2.92
2022-08-03T09:56:32.906Z,2.47
2022-08-03T09:58:12.775Z,2.92
2022-08-03T10:01:00.688Z,2.83
2022-08-03T10:03:29.531Z,3.20
2022-08-03T10:05:59.720Z,2.88
2022-08-03T10:08:26.958Z,2.25
2022-08-03T10:10:55.033Z,3.00
2022-08-03T10:13:23.202Z,3.33
2022-08-03T10:16:23.956Z,2.75
2022-08-03T10:18:37.759Z,2.80
2022-08-03T10:21:08.846Z,3.00
2022-08-03T10:23:37.927Z,3.15
2022-08-03T10:26:07.302Z,2.88
2022-08-03T10:28:48.183Z,3.20
2022-08-03T10:31:16.474Z,3.00
2022-08-03T10:33:49.687Z,3.10
2022-08-03T10:36:22.988Z,2.90
2022-08-03T10:38:56.596Z,3.33
2022-08-03T10:41:37.652Z,2.38
2022-08-03T10:44:10.874Z,3.03
2022-08-03T10:46:44.812Z,2.90
2022-08-03T10:49:32.814Z,3.35
2022-08-03T10:52:01.168Z,3.10
2022-08-03T10:55:07.321Z,3.30
2022-08-03T10:57:43.781Z,2.92
2022-08-03T11:00:24.044Z,3.40
2022-08-03T11:03:14.415Z,3.22
2022-08-03T11:05:46.713Z,3.70
2022-08-03T11:08:26.197Z,3.10
2022-08-03T11:10:55.762Z,3.45
2022-08-03T11:13:25.471Z,3.28
2022-08-03T11:16:02.234Z,3.20
2022-08-03T11:18:31.260Z,4.00
2022-08-03T11:21:00.423Z,3.85
2022-08-03T11:24:04.965Z,4.10
2022-08-03T11:26:33.555Z,3.58
2022-08-03T11:29:31.479Z,3.97
2022-08-03T11:31:58.464Z,3.47
2022-08-03T11:34:26.254Z,3.42
2022-08-03T11:37:18.470Z,3.40
2022-08-03T11:39:47.154Z,3.70
2022-08-03T11:42:27.014Z,3.67
2022-08-03T11:44:58.186Z,3.97
2022-08-03T11:47:27.358Z,3.50
2022-08-03T11:50:01.842Z,3.50
2022-08-03T11:52:35.570Z,4.03
2022-08-03T11:55:02.721Z,3.65
2022-08-03T11:59:00.956Z,3.08
2022-08-03T12:00:35.743Z,3.70
2022-08-03T12:03:07.532Z,3.83
2022-08-03T12:05:36.614Z,3.17
2022-08-03T12:08:06.748Z,3.33
2022-08-03T12:10:34.626Z,3.22
2022-08-03T12:13:05.885Z,3.40
2022-08-03T12:15:59.084Z,3.10
2022-08-03T12:18:26.350Z,3.25
2022-08-03T12:21:03.084Z,2.92
2022-08-03T12:23:29.900Z,2.90
2022-08-03T12:26:08.290Z,3.17
2022-08-03T12:28:37.881Z,2.90
2022-08-03T12:31:12.720Z,2.92
2022-08-03T12:33:56.201Z,2.85
2022-08-03T12:36:23.084Z,3.20
2022-08-03T12:38:58.604Z,2.80
2022-08-03T12:41:34.217Z,3.08
2022-08-03T12:44:03.535Z,3.47
2022-08-03T12:46:41.660Z,3.20
2022-08-03T12:49:19.128Z,2.95
2022-08-03T12:51:45.939Z,2.90
2022-08-03T12:54:24.711Z,3.20
2022-08-03T12:57:06.187Z,2.90
2022-08-03T12:59:42.461Z,2.97
2022-08-03T13:02:25.808Z,3.20
2022-08-03T13:04:54.796Z,3.08
2022-08-03T13:07:23.083Z,3.10
2022-08-03T13:09:55.231Z,2.90
2022-08-03T13:12:23.923Z,3.38
2022-08-03T13:14:58.907Z,3.17
2022-08-03T13:17:26.715Z,2.63
2022-08-03T13:19:54.098Z,3.28
2022-08-03T13:22:23.394Z,2.83
2022-08-03T13:24:52.589Z,3.00
2022-08-03T13:28:02.565Z,2.95
2022-08-03T13:30:07.948Z,3.17
2022-08-03T13:32:35.799Z,3.05
2022-08-03T13:35:03.038Z,2.80
2022-08-03T13:37:32.262Z,2.80
2022-08-03T13:40:02.855Z,2.65
2022-08-03T13:42:34.341Z,3.08
2022-08-03T13:45:02.455Z,2.88
2022-08-03T13:47:29.339Z,2.90
2022-08-03T13:50:01.781Z,3.25
2022-08-03T13:52:31.710Z,2.88
2022-08-03T13:54:58.888Z,2.67
2022-08-03T13:58:04.029Z,3.30
2022-08-03T14:00:13.118Z,3.58
2022-08-03T14:02:55.326Z,2.75
2022-08-03T14:05:25.488Z,3.22
2022-08-03T14:07:52.313Z,3.05
2022-08-03T14:10:25.059Z,2.75
2022-08-03T14:12:51.852Z,2.90
2022-08-03T14:15:18.697Z,3.30
2022-08-03T14:17:50.009Z,3.20
2022-08-03T14:20:38.598Z,3.05
2022-08-03T14:23:03.971Z,3.40
2022-08-03T14:25:43.220Z,3.20
2022-08-03T14:28:18.303Z,2.90
2022-08-03T14:30:45.508Z,3.08
2022-08-03T14:33:12.358Z,2.95
2022-08-03T14:35:39.173Z,3.10
2022-08-03T14:38:06.151Z,3.53
2022-08-03T14:40:33.182Z,3.22
2022-08-03T14:42:59.997Z,3.28
2022-08-03T14:45:26.813Z,3.03
2022-08-03T14:50:28.892Z,3.42
2022-08-03T14:50:45.455Z,3.35
2022-08-03T14:53:14.168Z,3.40
2022-08-03T14:55:49.771Z,3.25
2022-08-03T14:58:19.562Z,2.60
2022-08-03T15:00:47.687Z,3.60
2022-08-03T15:03:16.757Z,3.30
2022-08-03T15:05:44.349Z,2.97
2022-08-03T15:08:11.311Z,2.92
2022-08-03T15:10:44.039Z,3.03
2022-08-03T15:13:12.045Z,2.75
2022-08-03T15:15:38.913Z,3.20
2022-08-03T15:18:05.818Z,2.95
2022-08-03T15:20:43.906Z,2.88
2022-08-03T15:23:12.732Z,3.05
2022-08-03T15:26:04.175Z,2.95
2022-08-03T15:28:26.295Z,3.50
2022-08-03T15:30:53.264Z,3.03
2022-08-03T15:33:20.387Z,3.40
2022-08-03T15:35:48.119Z,3.20
2022-08-03T15:38:15.299Z,3.08
2022-08-03T15:40:42.343Z,2.80
2022-08-03T15:43:09.206Z,3.08
2022-08-03T15:45:36.989Z,3.40
2022-08-03T15:48:05.865Z,3.58
2022-08-03T15:50:32.950Z,3.35
2022-08-03T15:52:59.995Z,3.45
2022-08-03T15:55:27.297Z,3.00
2022-08-03T15:59:10.513Z,3.45
2022-08-03T16:00:42.788Z,3.47
2022-08-03T16:03:10.310Z,3.40
2022-08-03T16:05:37.220Z,3.58
2022-08-03T16:08:07.006Z,3.33
2022-08-03T16:10:36.133Z,3.45
2022-08-03T16:13:03.023Z,5.30
2022-08-03T16:15:30.118Z,3.17
2022-08-03T16:17:57.051Z,3.08
2022-08-03T16:20:29.205Z,3.13
2022-08-03T16:22:58.390Z,3.50
2022-08-03T16:25:25.237Z,3.15
2022-08-03T16:28:03.256Z,3.30
2022-08-03T16:30:34.296Z,3.50
2022-08-03T16:33:01.104Z,3.60
2022-08-03T16:35:27.903Z,3.63
2022-08-03T16:37:56.420Z,3.60
2022-08-03T16:40:25.027Z,4.10
2022-08-03T16:42:51.988Z,4.05
2022-08-03T16:45:19.121Z,4.10
2022-08-03T16:47:45.968Z,3.90
2022-08-03T16:50:17.504Z,4.40
2022-08-03T16:52:47.089Z,4.40
2022-08-03T16:55:15.898Z,4.53
2022-08-03T16:58:03.342Z,4.38
2022-08-03T17:00:33.009Z,4.35
2022-08-03T17:03:04.100Z,4.28
2022-08-03T17:05:43.661Z,4.25
2022-08-03T17:08:15.048Z,4.18
2022-08-03T17:10:45.162Z,4.03
2022-08-03T17:13:21.573Z,4.15
2022-08-03T17:15:58.368Z,4.45
2022-08-03T17:18:34.048Z,3.92
2022-08-03T17:21:08.013Z,4.50
2022-08-03T17:23:49.474Z,3.67
2022-08-03T17:26:21.877Z,4.72
2022-08-03T17:28:57.192Z,5.15
2022-08-03T17:31:31.518Z,4.80
2022-08-03T17:34:02.040Z,4.82
2022-08-03T17:39:27.053Z,4.80
2022-08-03T17:44:57.217Z,4.95
2022-08-03T17:47:40.948Z,5.28
2022-08-03T17:50:23.525Z,5.47
2022-08-03T17:53:01.214Z,5.53
2022-08-03T17:55:56.102Z,5.55
2022-08-03T17:58:55.055Z,4.90
2022-08-03T18:02:03.251Z,5.22
2022-08-03T18:04:41.256Z,6.68
2022-08-03T18:07:12.714Z,5.93
2022-08-03T18:10:04.538Z,5.82
2022-08-03T18:12:51.597Z,7.03
2022-08-03T18:15:31.876Z,6.03
2022-08-03T18:20:53.555Z,6.32
2022-08-03T18:23:36.929Z,7.47
2022-08-03T18:26:12.055Z,8.30
2022-08-03T18:28:40.007Z,7.88
2022-08-03T18:31:11.894Z,7.05
2022-08-03T18:34:16.703Z,7.63
2022-08-03T18:36:30.367Z,8.45
2022-08-03T18:39:00.356Z,9.27
2022-08-03T18:41:33.419Z,11.23
2022-08-03T18:44:37.667Z,11.07
2022-08-03T18:47:50.815Z,9.63
2022-08-03T18:50:52.243Z,9.00
2022-08-03T18:54:02.696Z,9.15
2022-08-03T18:56:22.100Z,8.35
2022-08-03T18:59:30.626Z,8.32
2022-08-03T19:02:06.062Z,10.20
2022-08-03T19:04:45.219Z,9.18
2022-08-03T19:07:17.126Z,9.15
2022-08-03T19:09:53.054Z,9.80
2022-08-03T19:12:33.922Z,10.00
2022-08-03T19:15:12.639Z,8.50
2022-08-03T19:17:52.869Z,9.82
2022-08-03T19:20:25.836Z,10.75
2022-08-03T19:22:54.551Z,9.80
2022-08-03T19:25:34.343Z,9.52
2022-08-03T19:28:05.835Z,10.15
2022-08-03T19:30:55.243Z,9.63
2022-08-03T19:33:25.716Z,9.73
2022-08-03T19:35:57.668Z,9.55
2022-08-03T19:38:29.817Z,9.48
2022-08-03T19:40:59.569Z,8.60
2022-08-03T19:43:52.729Z,9.82
2022-08-03T19:46:30.690Z,9.32
2022-08-03T19:49:10.604Z,9.85
2022-08-03T19:52:01.112Z,9.35
2022-08-03T19:54:45.810Z,10.02
2022-08-03T19:57:24.335Z,9.95
2022-08-03T19:59:53.495Z,11.68
2022-08-03T20:02:27.004Z,10.48
2022-08-03T20:04:57.103Z,11.20
2022-08-03T20:07:26.088Z,10.55
2022-08-03T20:09:56.601Z,11.23
2022-08-03T20:12:27.522Z,10.27
2022-08-03T20:14:59.504Z,10.63
2022-08-03T20:17:55.552Z,10.63
2022-08-03T20:20:18.553Z,10.98
2022-08-03T20:22:51.337Z,11.45
2022-08-03T20:25:26.759Z,12.60
2022-08-03T20:31:00.079Z,11.60
2022-08-03T20:33:46.101Z,12.40
2022-08-03T20:36:17.710Z,11.27
2022-08-03T20:38:50.178Z,12.93
2022-08-03T20:41:19.422Z,10.98
2022-08-03T20:43:49.211Z,11.82
2022-08-03T20:46:31.075Z,12.25
2022-08-03T20:49:05.367Z,13.05
2022-08-03T20:51:50.207Z,12.38
2022-08-03T20:54:31.227Z,12.30
2022-08-03T20:57:00.671Z,13.15
2022-08-03T20:59:36.950Z,13.00
2022-08-03T21:02:19.649Z,13.30
2022-08-03T21:04:56.385Z,15.15
2022-08-03T21:08:04.180Z,13.20
2022-08-03T21:10:15.577Z,12.90
2022-08-03T21:13:04.438Z,7.38
2022-08-03T21:13:05.225Z,5.15
2022-08-03T21:13:06.981Z,11.23
2022-08-03T21:16:07.038Z,12.35
2022-08-03T21:18:50.212Z,12.05
2022-08-03T21:21:20.203Z,10.98
2022-08-03T21:23:53.508Z,10.35
2022-08-03T21:26:23.183Z,10.55
2022-08-03T21:28:51.660Z,11.80
2022-08-03T21:31:24.774Z,11.07
2022-08-03T21:33:57.656Z,11.18
2022-08-03T21:36:29.591Z,12.05
2022-08-03T21:38:57.840Z,10.20
2022-08-03T21:41:30.361Z,10.93
2022-08-03T21:43:59.464Z,10.38
2022-08-03T21:46:30.265Z,11.05
2022-08-03T21:50:07.503Z,10.98
2022-08-03T21:51:50.795Z,11.45
2022-08-03T21:54:20.943Z,11.63
2022-08-03T21:56:50.993Z,10.15
2022-08-03T21:59:19.912Z,10.73
2022-08-03T22:01:55.368Z,10.57
2022-08-03T22:04:50.101Z,10.82
2022-08-03T22:07:14.101Z,10.65
2022-08-03T22:09:51.081Z,11.18
2022-08-03T22:12:21.770Z,9.60
2022-08-03T22:14:49.713Z,9.77
2022-08-03T22:17:54.957Z,10.60
2022-08-03T22:20:14.969Z,8.77
2022-08-03T22:22:45.077Z,9.02
2022-08-03T22:25:29.235Z,9.38
2022-08-03T22:28:03.797Z,9.13
2022-08-03T22:30:33.007Z,9.18
2022-08-03T22:33:02.662Z,9.30
2022-08-03T22:35:33.110Z,8.77
2022-08-03T22:38:16.820Z,8.35
2022-08-03T22:40:44.902Z,9.15
2022-08-03T22:43:12.152Z,8.95
2022-08-03T22:46:08.486Z,9.18
2022-08-03T22:48:27.751Z,8.40
2022-08-03T22:50:56.142Z,8.77
2022-08-03T22:53:23.127Z,8.30
2022-08-03T22:55:51.699Z,8.43
2022-08-03T22:58:20.936Z,8.98
2022-08-03T23:00:53.641Z,8.75
2022-08-03T23:03:25.778Z,8.52
2022-08-03T23:06:20.213Z,7.90
2022-08-03T23:08:50.347Z,8.23
2022-08-03T23:11:19.202Z,8.13
2022-08-03T23:13:52.202Z,8.63
2022-08-03T23:16:29.668Z,7.65
2022-08-03T23:19:16.373Z,8.00
2022-08-03T23:21:53.890Z,7.70
2022-08-03T23:24:29.659Z,7.53
2022-08-03T23:26:58.876Z,7.20
2022-08-03T23:29:28.870Z,7.05
2022-08-03T23:31:58.072Z,6.70
2022-08-03T23:34:44.950Z,7.07
2022-08-03T23:37:14.981Z,7.72
2022-08-03T23:39:47.085Z,7.72
2022-08-03T23:42:17.598Z,7.97
2022-08-03T23:44:46.730Z,7.60
2022-08-03T23:47:14.539Z,7.47
2022-08-03T23:49:41.623Z,7.03
2022-08-03T23:52:17.628Z,6.93
2022-08-03T23:54:51.756Z,6.30
2022-08-03T23:57:23.370Z,6.82
